Deva — A8OK3 — position and weather

sailwx.info

Track history (hours):
 
Tides and Currents Weather Stations Pressure Air Temp Water Temp Dewpoint Dewpoint Depression Visibility Wind Speed Wind Dir Waves Ship Positions

Deva

Last reported at 2014-Oct-17 23:27 UTC. Time now 2014-Oct-20 09:44 UTC.
Position N 32°44' E 031°32'.

Length 259 m; draft 10.5 m.

Type: Ship (hazmat cat A). MMSI: 636013644.

Date/timePositionNaut miles runAvg speedWind from/ knotsBaromVisibWave heightAir tempDewpointWater temp
2014-Oct-17 23:27N 32°44' E 031°32'  
2014-Oct-12 12:33N 32°56' E 034°37'6 0.2
2014-Oct-11 04:23N 32°55' E 034°44'6612.5
2014-Oct-10 23:05N 33°35' E 033°41'1013.1
2014-Oct-10 22:17N 33°44' E 033°35'1013.4
2014-Oct-10 21:31N 33°54' E 033°30'1313.0
2014-Oct-10 20:33N 34°05' E 033°23'1312.8
2014-Oct-10 19:33N 34°17' E 033°17'1312.8
2014-Oct-10 18:33N 34°28' E 033°10'1312.7
2014-Oct-10 17:33N 34°39' E 033°03'2 1.6
2014-Oct-10 16:33N 34°39' E 033°01'0 0.0
2014-Oct-10 15:34N 34°39' E 033°01'0 0.0
2014-Oct-10 14:33N 34°39' E 033°01'0 0.0
2014-Oct-10 13:33N 34°39' E 033°01'0 0.0
2014-Oct-10 12:33N 34°39' E 033°01'0 0.0
2014-Oct-10 11:33N 34°39' E 033°01'0 0.0
2014-Oct-10 10:34N 34°39' E 033°01'0 0.0
2014-Oct-10 09:33N 34°39' E 033°01'0 0.0
2014-Oct-10 08:33N 34°39' E 033°01'0 0.0
2014-Oct-10 07:34N 34°39' E 033°01'0 0.0
2014-Oct-10 06:34N 34°39' E 033°01'0 0.0
2014-Oct-10 05:33N 34°39' E 033°01'2 2.1
2014-Oct-10 04:34N 34°39' E 033°04'1 0.8
2014-Oct-10 03:34N 34°38' E 033°04'3 2.8
2014-Oct-10 02:33N 34°36' E 033°05'1010.1
2014-Oct-10 01:34N 34°26' E 033°09'1 0.8
2014-Oct-10 00:34N 34°25' E 033°08'1 0.6
2014-Oct-09 23:34N 34°25' E 033°07'1 0.6
2014-Oct-09 22:34N 34°25' E 033°07'1 0.6
2014-Oct-09 21:33N 34°25' E 033°06'1 0.7
2014-Oct-09 20:34N 34°25' E 033°05'3 2.6
2014-Oct-09 19:34N 34°25' E 033°02'1817.8
2014-Oct-09 18:34N 34°30' E 032°42'2120.5
2014-Oct-09 17:33N 34°31' E 032°17'2120.6
2014-Oct-09 16:34N 34°32' E 031°52'4520.7
2014-Oct-09 14:23N 34°33' E 030°57'24716.5
2014-Oct-08 23:26N 34°42' E 025°57'3012.8
2014-Oct-08 21:07N 34°43' E 025°21'  
Track history (hours):
 
Tides and Currents Weather Stations Pressure Air Temp Water Temp Dewpoint Dewpoint Depression Visibility Wind Speed Wind Dir Waves Ship Positions

Deva

Last reported at 2014-Oct-17 23:27 UTC. Time now 2014-Oct-20 09:44 UTC.
Position N 32°44' E 031°32'.

Length 259 m; draft 10.5 m.

Type: Ship (hazmat cat A). MMSI: 636013644.

Date/timePositionNaut miles runAvg speedWind from/ knotsBaromVisibWave heightAir tempDewpointWater temp
2014-Oct-17 23:27N 32°44' E 031°32'  
2014-Oct-12 12:33N 32°56' E 034°37'6 0.2
2014-Oct-11 04:23N 32°55' E 034°44'6612.5
2014-Oct-10 23:05N 33°35' E 033°41'1013.1
2014-Oct-10 22:17N 33°44' E 033°35'1013.4
2014-Oct-10 21:31N 33°54' E 033°30'1313.0
2014-Oct-10 20:33N 34°05' E 033°23'1312.8
2014-Oct-10 19:33N 34°17' E 033°17'1312.8
2014-Oct-10 18:33N 34°28' E 033°10'1312.7
2014-Oct-10 17:33N 34°39' E 033°03'2 1.6
2014-Oct-10 16:33N 34°39' E 033°01'0 0.0
2014-Oct-10 15:34N 34°39' E 033°01'0 0.0
2014-Oct-10 14:33N 34°39' E 033°01'0 0.0
2014-Oct-10 13:33N 34°39' E 033°01'0 0.0
2014-Oct-10 12:33N 34°39' E 033°01'0 0.0
2014-Oct-10 11:33N 34°39' E 033°01'0 0.0
2014-Oct-10 10:34N 34°39' E 033°01'0 0.0
2014-Oct-10 09:33N 34°39' E 033°01'0 0.0
2014-Oct-10 08:33N 34°39' E 033°01'0 0.0
2014-Oct-10 07:34N 34°39' E 033°01'0 0.0
2014-Oct-10 06:34N 34°39' E 033°01'0 0.0
2014-Oct-10 05:33N 34°39' E 033°01'2 2.1
2014-Oct-10 04:34N 34°39' E 033°04'1 0.8
2014-Oct-10 03:34N 34°38' E 033°04'3 2.8
2014-Oct-10 02:33N 34°36' E 033°05'1010.1
2014-Oct-10 01:34N 34°26' E 033°09'1 0.8
2014-Oct-10 00:34N 34°25' E 033°08'1 0.6
2014-Oct-09 23:34N 34°25' E 033°07'1 0.6
2014-Oct-09 22:34N 34°25' E 033°07'1 0.6
2014-Oct-09 21:33N 34°25' E 033°06'1 0.7
2014-Oct-09 20:34N 34°25' E 033°05'3 2.6
2014-Oct-09 19:34N 34°25' E 033°02'1817.8
2014-Oct-09 18:34N 34°30' E 032°42'2120.5
2014-Oct-09 17:33N 34°31' E 032°17'2120.6
2014-Oct-09 16:34N 34°32' E 031°52'4520.7
2014-Oct-09 14:23N 34°33' E 030°57'24716.5
2014-Oct-08 23:26N 34°42' E 025°57'3012.8
2014-Oct-08 21:07N 34°43' E 025°21'  

Dump ship's entire track history